sensor_id;sensor_type;location;lat;lon;timestamp;P1;durP1;ratioP1;P2;durP2;ratioP2
6243;SDS011;3155;49.940;8.450;2022-11-11T00:01:12;3.30;;;1.20;;
6243;SDS011;3155;49.940;8.450;2022-11-11T00:03:40;1.05;;;1.05;;
6243;SDS011;3155;49.940;8.450;2022-11-11T00:06:09;1.65;;;1.27;;
6243;SDS011;3155;49.940;8.450;2022-11-11T00:08:41;3.30;;;1.02;;
6243;SDS011;3155;49.940;8.450;2022-11-11T00:11:09;0.95;;;0.95;;
6243;SDS011;3155;49.940;8.450;2022-11-11T00:13:37;1.10;;;1.00;;
6243;SDS011;3155;49.940;8.450;2022-11-11T00:16:08;1.50;;;1.15;;
6243;SDS011;3155;49.940;8.450;2022-11-11T00:18:41;0.70;;;0.70;;
6243;SDS011;3155;49.940;8.450;2022-11-11T00:21:27;0.60;;;0.60;;
6243;SDS011;3155;49.940;8.450;2022-11-11T00:24:21;0.70;;;0.65;;
6243;SDS011;3155;49.940;8.450;2022-11-11T00:27:08;1.33;;;1.15;;
6243;SDS011;3155;49.940;8.450;2022-11-11T00:29:35;1.42;;;1.15;;
6243;SDS011;3155;49.940;8.450;2022-11-11T00:32:04;0.77;;;0.77;;
6243;SDS011;3155;49.940;8.450;2022-11-11T00:34:50;1.10;;;0.98;;
6243;SDS011;3155;49.940;8.450;2022-11-11T00:37:49;0.88;;;0.88;;
6243;SDS011;3155;49.940;8.450;2022-11-11T00:40:16;2.30;;;0.80;;
6243;SDS011;3155;49.940;8.450;2022-11-11T00:42:43;0.35;;;0.35;;
6243;SDS011;3155;49.940;8.450;2022-11-11T00:45:10;1.40;;;0.73;;
6243;SDS011;3155;49.940;8.450;2022-11-11T00:47:37;0.80;;;0.70;;
6243;SDS011;3155;49.940;8.450;2022-11-11T00:50:24;0.67;;;0.67;;
6243;SDS011;3155;49.940;8.450;2022-11-11T00:53:18;0.65;;;0.65;;
6243;SDS011;3155;49.940;8.450;2022-11-11T00:55:52;0.75;;;0.75;;
6243;SDS011;3155;49.940;8.450;2022-11-11T00:58:20;1.00;;;1.00;;
6243;SDS011;3155;49.940;8.450;2022-11-11T01:00:48;1.10;;;1.10;;
6243;SDS011;3155;49.940;8.450;2022-11-11T01:03:20;1.30;;;1.20;;
6243;SDS011;3155;49.940;8.450;2022-11-11T01:05:48;1.67;;;1.00;;
6243;SDS011;3155;49.940;8.450;2022-11-11T01:08:15;2.10;;;1.03;;
6243;SDS011;3155;49.940;8.450;2022-11-11T01:10:42;2.00;;;0.88;;
6243;SDS011;3155;49.940;8.450;2022-11-11T01:13:17;1.20;;;1.20;;
6243;SDS011;3155;49.940;8.450;2022-11-11T01:15:50;1.13;;;1.13;;
6243;SDS011;3155;49.940;8.450;2022-11-11T01:18:22;0.98;;;0.98;;
6243;SDS011;3155;49.940;8.450;2022-11-11T01:20:57;0.73;;;0.73;;
6243;SDS011;3155;49.940;8.450;2022-11-11T01:23:24;1.00;;;0.70;;
6243;SDS011;3155;49.940;8.450;2022-11-11T01:25:52;0.70;;;0.70;;
6243;SDS011;3155;49.940;8.450;2022-11-11T01:28:18;0.82;;;0.82;;
6243;SDS011;3155;49.940;8.450;2022-11-11T01:30:45;0.45;;;0.45;;
6243;SDS011;3155;49.940;8.450;2022-11-11T01:33:12;0.82;;;0.68;;
6243;SDS011;3155;49.940;8.450;2022-11-11T01:35:40;0.75;;;0.75;;
6243;SDS011;3155;49.940;8.450;2022-11-11T01:38:07;2.90;;;1.20;;
6243;SDS011;3155;49.940;8.450;2022-11-11T01:40:42;0.80;;;0.80;;
6243;SDS011;3155;49.940;8.450;2022-11-11T01:43:16;1.10;;;1.10;;
6243;SDS011;3155;49.940;8.450;2022-11-11T01:48:33;1.30;;;1.10;;
6243;SDS011;3155;49.940;8.450;2022-11-11T01:54:32;1.00;;;0.90;;
6243;SDS011;3155;49.940;8.450;2022-11-11T01:57:05;0.70;;;0.60;;
6243;SDS011;3155;49.940;8.450;2022-11-11T01:59:47;1.30;;;0.70;;
6243;SDS011;3155;49.940;8.450;2022-11-11T02:02:18;0.40;;;0.40;;
6243;SDS011;3155;49.940;8.450;2022-11-11T02:04:48;0.80;;;0.35;;
6243;SDS011;3155;49.940;8.450;2022-11-11T02:07:35;1.00;;;0.40;;
6243;SDS011;3155;49.940;8.450;2022-11-11T02:10:04;0.60;;;0.60;;
6243;SDS011;3155;49.940;8.450;2022-11-11T02:12:33;0.40;;;0.40;;
6243;SDS011;3155;49.940;8.450;2022-11-11T02:15:19;0.55;;;0.55;;
6243;SDS011;3155;49.940;8.450;2022-11-11T02:17:49;0.50;;;0.50;;
6243;SDS011;3155;49.940;8.450;2022-11-11T02:20:20;0.77;;;0.77;;
6243;SDS011;3155;49.940;8.450;2022-11-11T02:23:09;0.70;;;0.70;;
6243;SDS011;3155;49.940;8.450;2022-11-11T02:25:55;0.82;;;0.70;;
6243;SDS011;3155;49.940;8.450;2022-11-11T02:28:24;0.63;;;0.63;;
6243;SDS011;3155;49.940;8.450;2022-11-11T02:30:53;0.60;;;0.60;;
6243;SDS011;3155;49.940;8.450;2022-11-11T02:33:19;0.80;;;0.80;;
6243;SDS011;3155;49.940;8.450;2022-11-11T02:35:50;1.10;;;0.47;;
6243;SDS011;3155;49.940;8.450;2022-11-11T02:38:21;0.50;;;0.45;;
6243;SDS011;3155;49.940;8.450;2022-11-11T02:40:50;0.70;;;0.40;;
6243;SDS011;3155;49.940;8.450;2022-11-11T02:43:35;0.37;;;0.37;;
6243;SDS011;3155;49.940;8.450;2022-11-11T02:46:05;0.33;;;0.33;;
6243;SDS011;3155;49.940;8.450;2022-11-11T02:48:32;0.73;;;0.73;;
6243;SDS011;3155;49.940;8.450;2022-11-11T02:51:00;2.40;;;0.40;;
6243;SDS011;3155;49.940;8.450;2022-11-11T02:53:27;0.60;;;0.50;;
6243;SDS011;3155;49.940;8.450;2022-11-11T02:55:54;0.52;;;0.52;;
6243;SDS011;3155;49.940;8.450;2022-11-11T02:58:21;0.70;;;0.70;;
6243;SDS011;3155;49.940;8.450;2022-11-11T03:00:48;1.00;;;1.00;;
6243;SDS011;3155;49.940;8.450;2022-11-11T03:03:15;1.38;;;1.25;;
6243;SDS011;3155;49.940;8.450;2022-11-11T03:05:42;1.17;;;1.08;;
6243;SDS011;3155;49.940;8.450;2022-11-11T03:08:11;0.97;;;0.80;;
6243;SDS011;3155;49.940;8.450;2022-11-11T03:10:38;1.33;;;1.02;;
6243;SDS011;3155;49.940;8.450;2022-11-11T03:13:05;2.10;;;1.33;;
6243;SDS011;3155;49.940;8.450;2022-11-11T03:15:37;1.50;;;0.77;;
6243;SDS011;3155;49.940;8.450;2022-11-11T03:18:04;0.35;;;0.35;;
6243;SDS011;3155;49.940;8.450;2022-11-11T03:20:31;0.80;;;0.80;;
6243;SDS011;3155;49.940;8.450;2022-11-11T03:23:16;0.50;;;0.50;;
6243;SDS011;3155;49.940;8.450;2022-11-11T03:25:44;1.02;;;1.02;;
6243;SDS011;3155;49.940;8.450;2022-11-11T03:28:14;1.50;;;0.98;;
6243;SDS011;3155;49.940;8.450;2022-11-11T03:30:43;0.88;;;0.77;;
6243;SDS011;3155;49.940;8.450;2022-11-11T03:33:11;0.83;;;0.53;;
6243;SDS011;3155;49.940;8.450;2022-11-11T03:35:38;0.82;;;0.82;;
6243;SDS011;3155;49.940;8.450;2022-11-11T03:38:06;1.42;;;1.33;;
6243;SDS011;3155;49.940;8.450;2022-11-11T03:40:41;0.50;;;0.50;;
6243;SDS011;3155;49.940;8.450;2022-11-11T03:43:10;1.00;;;0.50;;
6243;SDS011;3155;49.940;8.450;2022-11-11T03:45:37;1.20;;;0.63;;
6243;SDS011;3155;49.940;8.450;2022-11-11T03:48:04;0.80;;;0.80;;
6243;SDS011;3155;49.940;8.450;2022-11-11T03:50:31;0.60;;;0.60;;
6243;SDS011;3155;49.940;8.450;2022-11-11T03:52:58;0.90;;;0.80;;
6243;SDS011;3155;49.940;8.450;2022-11-11T03:55:26;0.90;;;0.70;;
6243;SDS011;3155;49.940;8.450;2022-11-11T03:57:53;1.00;;;1.00;;
6243;SDS011;3155;49.940;8.450;2022-11-11T04:00:21;0.40;;;0.40;;
6243;SDS011;3155;49.940;8.450;2022-11-11T04:02:49;0.60;;;0.60;;
6243;SDS011;3155;49.940;8.450;2022-11-11T04:05:35;1.38;;;0.30;;
6243;SDS011;3155;49.940;8.450;2022-11-11T04:08:21;0.50;;;0.50;;
6243;SDS011;3155;49.940;8.450;2022-11-11T04:11:11;0.55;;;0.55;;
6243;SDS011;3155;49.940;8.450;2022-11-11T04:13:40;0.40;;;0.40;;
6243;SDS011;3155;49.940;8.450;2022-11-11T04:16:29;0.80;;;0.80;;
6243;SDS011;3155;49.940;8.450;2022-11-11T04:18:56;2.22;;;0.80;;
6243;SDS011;3155;49.940;8.450;2022-11-11T04:21:44;0.50;;;0.50;;
6243;SDS011;3155;49.940;8.450;2022-11-11T04:24:15;0.73;;;0.73;;
6243;SDS011;3155;49.940;8.450;2022-11-11T04:27:02;0.45;;;0.45;;
6243;SDS011;3155;49.940;8.450;2022-11-11T04:29:31;0.98;;;0.55;;
6243;SDS011;3155;49.940;8.450;2022-11-11T04:31:59;0.70;;;0.70;;
6243;SDS011;3155;49.940;8.450;2022-11-11T04:34:46;1.00;;;0.70;;
6243;SDS011;3155;49.940;8.450;2022-11-11T04:37:14;0.77;;;0.77;;
6243;SDS011;3155;49.940;8.450;2022-11-11T04:39:45;0.53;;;0.53;;
6243;SDS011;3155;49.940;8.450;2022-11-11T04:42:30;0.68;;;0.68;;
6243;SDS011;3155;49.940;8.450;2022-11-11T04:44:58;0.43;;;0.43;;
6243;SDS011;3155;49.940;8.450;2022-11-11T04:48:03;1.08;;;0.98;;
6243;SDS011;3155;49.940;8.450;2022-11-11T04:50:35;1.40;;;0.80;;
6243;SDS011;3155;49.940;8.450;2022-11-11T04:53:07;0.40;;;0.40;;
6243;SDS011;3155;49.940;8.450;2022-11-11T04:55:40;0.50;;;0.50;;
6243;SDS011;3155;49.940;8.450;2022-11-11T04:58:28;0.65;;;0.65;;
6243;SDS011;3155;49.940;8.450;2022-11-11T05:01:01;0.60;;;0.60;;
6243;SDS011;3155;49.940;8.450;2022-11-11T05:03:28;0.70;;;0.70;;
6243;SDS011;3155;49.940;8.450;2022-11-11T05:05:56;0.70;;;0.70;;
6243;SDS011;3155;49.940;8.450;2022-11-11T05:08:44;1.42;;;0.70;;
6243;SDS011;3155;49.940;8.450;2022-11-11T05:11:23;1.58;;;0.70;;
6243;SDS011;3155;49.940;8.450;2022-11-11T05:13:52;0.52;;;0.52;;
6243;SDS011;3155;49.940;8.450;2022-11-11T05:16:54;0.70;;;0.55;;
6243;SDS011;3155;49.940;8.450;2022-11-11T05:19:44;0.63;;;0.43;;
6243;SDS011;3155;49.940;8.450;2022-11-11T05:24:58;0.60;;;0.52;;
6243;SDS011;3155;49.940;8.450;2022-11-11T05:27:44;0.82;;;0.82;;
6243;SDS011;3155;49.940;8.450;2022-11-11T05:30:11;0.60;;;0.60;;
6243;SDS011;3155;49.940;8.450;2022-11-11T05:32:39;0.20;;;0.20;;
6243;SDS011;3155;49.940;8.450;2022-11-11T05:35:07;0.25;;;0.25;;
6243;SDS011;3155;49.940;8.450;2022-11-11T05:37:34;1.50;;;0.53;;
6243;SDS011;3155;49.940;8.450;2022-11-11T05:40:02;1.50;;;0.70;;
6243;SDS011;3155;49.940;8.450;2022-11-11T05:42:29;0.57;;;0.57;;
6243;SDS011;3155;49.940;8.450;2022-11-11T05:44:56;0.57;;;0.57;;
6243;SDS011;3155;49.940;8.450;2022-11-11T05:47:23;0.32;;;0.32;;
6243;SDS011;3155;49.940;8.450;2022-11-11T05:49:50;0.25;;;0.25;;
6243;SDS011;3155;49.940;8.450;2022-11-11T05:52:17;0.45;;;0.45;;
6243;SDS011;3155;49.940;8.450;2022-11-11T05:54:44;0.55;;;0.55;;
6243;SDS011;3155;49.940;8.450;2022-11-11T05:57:14;0.68;;;0.68;;
6243;SDS011;3155;49.940;8.450;2022-11-11T05:59:41;0.50;;;0.50;;
6243;SDS011;3155;49.940;8.450;2022-11-11T06:02:08;0.60;;;0.38;;
6243;SDS011;3155;49.940;8.450;2022-11-11T06:04:36;0.55;;;0.55;;
6243;SDS011;3155;49.940;8.450;2022-11-11T06:07:02;0.60;;;0.60;;
6243;SDS011;3155;49.940;8.450;2022-11-11T06:09:32;0.63;;;0.47;;
6243;SDS011;3155;49.940;8.450;2022-11-11T06:11:59;0.20;;;0.20;;
6243;SDS011;3155;49.940;8.450;2022-11-11T06:14:26;0.50;;;0.50;;
6243;SDS011;3155;49.940;8.450;2022-11-11T06:16:53;0.43;;;0.43;;
6243;SDS011;3155;49.940;8.450;2022-11-11T06:19:19;0.55;;;0.55;;
6243;SDS011;3155;49.940;8.450;2022-11-11T06:21:46;0.30;;;0.30;;
6243;SDS011;3155;49.940;8.450;2022-11-11T06:24:22;0.40;;;0.40;;
6243;SDS011;3155;49.940;8.450;2022-11-11T06:26:52;0.65;;;0.65;;
6243;SDS011;3155;49.940;8.450;2022-11-11T06:29:19;0.60;;;0.60;;
6243;SDS011;3155;49.940;8.450;2022-11-11T06:31:46;0.85;;;0.52;;
6243;SDS011;3155;49.940;8.450;2022-11-11T06:34:15;0.57;;;0.57;;
6243;SDS011;3155;49.940;8.450;2022-11-11T06:36:42;0.60;;;0.60;;
6243;SDS011;3155;49.940;8.450;2022-11-11T06:39:08;0.68;;;0.68;;
6243;SDS011;3155;49.940;8.450;2022-11-11T06:41:35;1.50;;;0.65;;
6243;SDS011;3155;49.940;8.450;2022-11-11T06:44:02;0.60;;;0.32;;
6243;SDS011;3155;49.940;8.450;2022-11-11T06:46:41;0.45;;;0.45;;
6243;SDS011;3155;49.940;8.450;2022-11-11T06:49:07;0.88;;;0.60;;
6243;SDS011;3155;49.940;8.450;2022-11-11T06:51:34;0.77;;;0.77;;
6243;SDS011;3155;49.940;8.450;2022-11-11T06:54:00;0.98;;;0.95;;
6243;SDS011;3155;49.940;8.450;2022-11-11T06:56:27;0.50;;;0.50;;
6243;SDS011;3155;49.940;8.450;2022-11-11T06:58:54;1.35;;;0.90;;
6243;SDS011;3155;49.940;8.450;2022-11-11T07:01:20;0.80;;;0.50;;
6243;SDS011;3155;49.940;8.450;2022-11-11T07:03:47;0.63;;;0.63;;
6243;SDS011;3155;49.940;8.450;2022-11-11T07:06:14;0.90;;;0.50;;
6243;SDS011;3155;49.940;8.450;2022-11-11T07:08:44;0.65;;;0.65;;
6243;SDS011;3155;49.940;8.450;2022-11-11T07:11:10;0.95;;;0.47;;
6243;SDS011;3155;49.940;8.450;2022-11-11T07:13:43;0.90;;;0.90;;
6243;SDS011;3155;49.940;8.450;2022-11-11T07:16:10;0.47;;;0.47;;
6243;SDS011;3155;49.940;8.450;2022-11-11T07:18:37;1.00;;;0.52;;
6243;SDS011;3155;49.940;8.450;2022-11-11T07:21:04;1.00;;;1.00;;
6243;SDS011;3155;49.940;8.450;2022-11-11T07:23:34;0.50;;;0.50;;
6243;SDS011;3155;49.940;8.450;2022-11-11T07:26:00;0.90;;;0.80;;
6243;SDS011;3155;49.940;8.450;2022-11-11T07:28:27;0.80;;;0.43;;
6243;SDS011;3155;49.940;8.450;2022-11-11T07:30:54;1.10;;;1.10;;
6243;SDS011;3155;49.940;8.450;2022-11-11T07:33:20;0.57;;;0.57;;
6243;SDS011;3155;49.940;8.450;2022-11-11T07:35:50;1.08;;;1.00;;
6243;SDS011;3155;49.940;8.450;2022-11-11T07:38:17;1.23;;;0.60;;
6243;SDS011;3155;49.940;8.450;2022-11-11T07:40:44;0.63;;;0.63;;
6243;SDS011;3155;49.940;8.450;2022-11-11T07:43:10;0.50;;;0.50;;
6243;SDS011;3155;49.940;8.450;2022-11-11T07:45:37;0.85;;;0.85;;
6243;SDS011;3155;49.940;8.450;2022-11-11T07:48:04;1.17;;;0.85;;
6243;SDS011;3155;49.940;8.450;2022-11-11T07:50:31;0.80;;;0.75;;
6243;SDS011;3155;49.940;8.450;2022-11-11T07:52:57;0.30;;;0.30;;
6243;SDS011;3155;49.940;8.450;2022-11-11T07:55:24;0.40;;;0.40;;
6243;SDS011;3155;49.940;8.450;2022-11-11T07:57:51;0.90;;;0.40;;
6243;SDS011;3155;49.940;8.450;2022-11-11T08:00:18;0.47;;;0.47;;
6243;SDS011;3155;49.940;8.450;2022-11-11T08:02:46;0.70;;;0.70;;
6243;SDS011;3155;49.940;8.450;2022-11-11T08:05:20;0.40;;;0.40;;
6243;SDS011;3155;49.940;8.450;2022-11-11T08:07:46;0.73;;;0.73;;
6243;SDS011;3155;49.940;8.450;2022-11-11T08:10:14;0.63;;;0.63;;
6243;SDS011;3155;49.940;8.450;2022-11-11T08:12:40;0.85;;;0.85;;
6243;SDS011;3155;49.940;8.450;2022-11-11T08:15:26;0.88;;;0.88;;
6243;SDS011;3155;49.940;8.450;2022-11-11T08:17:52;1.30;;;0.50;;
6243;SDS011;3155;49.940;8.450;2022-11-11T08:20:19;0.60;;;0.60;;
6243;SDS011;3155;49.940;8.450;2022-11-11T08:22:45;1.02;;;0.57;;
6243;SDS011;3155;49.940;8.450;2022-11-11T08:25:32;1.00;;;0.80;;
6243;SDS011;3155;49.940;8.450;2022-11-11T08:28:00;0.65;;;0.65;;
6243;SDS011;3155;49.940;8.450;2022-11-11T08:30:29;1.20;;;0.93;;
6243;SDS011;3155;49.940;8.450;2022-11-11T08:35:47;0.57;;;0.57;;
6243;SDS011;3155;49.940;8.450;2022-11-11T08:38:14;0.60;;;0.50;;
6243;SDS011;3155;49.940;8.450;2022-11-11T08:40:41;0.70;;;0.70;;
6243;SDS011;3155;49.940;8.450;2022-11-11T08:43:07;1.30;;;1.23;;
6243;SDS011;3155;49.940;8.450;2022-11-11T08:45:34;1.00;;;1.00;;
6243;SDS011;3155;49.940;8.450;2022-11-11T08:48:01;0.93;;;0.93;;
6243;SDS011;3155;49.940;8.450;2022-11-11T08:50:28;2.10;;;0.80;;
6243;SDS011;3155;49.940;8.450;2022-11-11T08:52:55;0.57;;;0.57;;
6243;SDS011;3155;49.940;8.450;2022-11-11T08:55:22;2.63;;;1.63;;
6243;SDS011;3155;49.940;8.450;2022-11-11T08:57:56;0.80;;;0.73;;
6243;SDS011;3155;49.940;8.450;2022-11-11T09:00:31;0.50;;;0.50;;
6243;SDS011;3155;49.940;8.450;2022-11-11T09:02:59;1.33;;;1.02;;
6243;SDS011;3155;49.940;8.450;2022-11-11T09:05:27;2.28;;;1.10;;
6243;SDS011;3155;49.940;8.450;2022-11-11T09:07:54;1.52;;;1.23;;
6243;SDS011;3155;49.940;8.450;2022-11-11T09:10:21;1.10;;;0.98;;
6243;SDS011;3155;49.940;8.450;2022-11-11T09:12:48;2.20;;;1.50;;
6243;SDS011;3155;49.940;8.450;2022-11-11T09:15:22;1.70;;;1.60;;
6243;SDS011;3155;49.940;8.450;2022-11-11T09:17:50;2.47;;;1.33;;
6243;SDS011;3155;49.940;8.450;2022-11-11T09:20:16;1.17;;;1.00;;
6243;SDS011;3155;49.940;8.450;2022-11-11T09:22:50;2.20;;;1.10;;
6243;SDS011;3155;49.940;8.450;2022-11-11T09:25:18;3.30;;;1.60;;
6243;SDS011;3155;49.940;8.450;2022-11-11T09:27:55;1.60;;;1.50;;
6243;SDS011;3155;49.940;8.450;2022-11-11T09:30:24;3.97;;;1.40;;
6243;SDS011;3155;49.940;8.450;2022-11-11T09:32:51;2.30;;;1.40;;
6243;SDS011;3155;49.940;8.450;2022-11-11T09:35:18;1.17;;;1.10;;
6243;SDS011;3155;49.940;8.450;2022-11-11T09:37:52;2.60;;;1.65;;
6243;SDS011;3155;49.940;8.450;2022-11-11T09:40:21;1.85;;;1.23;;
6243;SDS011;3155;49.940;8.450;2022-11-11T09:43:02;1.83;;;1.73;;
6243;SDS011;3155;49.940;8.450;2022-11-11T09:48:40;2.08;;;1.88;;
6243;SDS011;3155;49.940;8.450;2022-11-11T09:51:28;3.22;;;2.45;;
6243;SDS011;3155;49.940;8.450;2022-11-11T09:53:59;2.33;;;2.03;;
6243;SDS011;3155;49.940;8.450;2022-11-11T09:56:31;2.72;;;1.80;;
6243;SDS011;3155;49.940;8.450;2022-11-11T09:59:19;3.50;;;2.42;;
6243;SDS011;3155;49.940;8.450;2022-11-11T10:01:53;2.37;;;2.17;;
6243;SDS011;3155;49.940;8.450;2022-11-11T10:07:24;3.90;;;2.27;;
6243;SDS011;3155;49.940;8.450;2022-11-11T10:10:10;4.90;;;2.33;;
6243;SDS011;3155;49.940;8.450;2022-11-11T10:12:44;2.70;;;2.08;;
6243;SDS011;3155;49.940;8.450;2022-11-11T10:15:15;3.15;;;2.80;;
6243;SDS011;3155;49.940;8.450;2022-11-11T10:20:29;3.92;;;2.88;;
6243;SDS011;3155;49.940;8.450;2022-11-11T10:23:09;4.15;;;2.78;;
6243;SDS011;3155;49.940;8.450;2022-11-11T10:25:50;2.30;;;1.80;;
6243;SDS011;3155;49.940;8.450;2022-11-11T10:28:20;3.05;;;2.00;;
6243;SDS011;3155;49.940;8.450;2022-11-11T10:30:52;3.75;;;2.13;;
6243;SDS011;3155;49.940;8.450;2022-11-11T10:35:53;2.63;;;1.95;;
6243;SDS011;3155;49.940;8.450;2022-11-11T10:38:25;1.90;;;1.80;;
6243;SDS011;3155;49.940;8.450;2022-11-11T10:41:09;2.08;;;1.88;;
6243;SDS011;3155;49.940;8.450;2022-11-11T10:43:41;1.77;;;1.65;;
6243;SDS011;3155;49.940;8.450;2022-11-11T10:46:20;2.15;;;1.90;;
6243;SDS011;3155;49.940;8.450;2022-11-11T10:48:56;5.10;;;2.40;;
6243;SDS011;3155;49.940;8.450;2022-11-11T10:51:32;5.05;;;2.55;;
6243;SDS011;3155;49.940;8.450;2022-11-11T10:54:15;1.75;;;1.63;;
6243;SDS011;3155;49.940;8.450;2022-11-11T10:56:59;2.67;;;2.13;;
6243;SDS011;3155;49.940;8.450;2022-11-11T11:02:16;1.47;;;1.27;;
6243;SDS011;3155;49.940;8.450;2022-11-11T11:04:48;1.55;;;1.45;;
6243;SDS011;3155;49.940;8.450;2022-11-11T11:07:25;1.75;;;1.58;;
6243;SDS011;3155;49.940;8.450;2022-11-11T11:10:04;2.80;;;2.10;;
6243;SDS011;3155;49.940;8.450;2022-11-11T11:12:50;2.15;;;1.92;;
6243;SDS011;3155;49.940;8.450;2022-11-11T11:15:22;2.75;;;2.35;;
6243;SDS011;3155;49.940;8.450;2022-11-11T11:17:53;3.03;;;2.03;;
6243;SDS011;3155;49.940;8.450;2022-11-11T11:20:32;2.53;;;2.20;;
6243;SDS011;3155;49.940;8.450;2022-11-11T11:23:09;1.63;;;1.52;;
6243;SDS011;3155;49.940;8.450;2022-11-11T11:25:35;2.17;;;1.60;;
6243;SDS011;3155;49.940;8.450;2022-11-11T11:28:12;1.98;;;1.38;;
6243;SDS011;3155;49.940;8.450;2022-11-11T11:30:39;2.17;;;2.03;;
6243;SDS011;3155;49.940;8.450;2022-11-11T11:33:22;2.55;;;2.22;;
6243;SDS011;3155;49.940;8.450;2022-11-11T11:35:49;3.17;;;2.25;;
6243;SDS011;3155;49.940;8.450;2022-11-11T11:38:16;2.35;;;2.25;;
6243;SDS011;3155;49.940;8.450;2022-11-11T11:43:24;1.80;;;1.58;;
6243;SDS011;3155;49.940;8.450;2022-11-11T11:45:55;3.80;;;2.00;;
6243;SDS011;3155;49.940;8.450;2022-11-11T11:51:35;3.65;;;3.25;;
6243;SDS011;3155;49.940;8.450;2022-11-11T11:54:14;7.03;;;2.13;;
6243;SDS011;3155;49.940;8.450;2022-11-11T11:57:02;2.08;;;1.98;;
6243;SDS011;3155;49.940;8.450;2022-11-11T12:06:12;2.13;;;2.00;;
6243;SDS011;3155;49.940;8.450;2022-11-11T12:11:19;3.78;;;2.47;;
6243;SDS011;3155;49.940;8.450;2022-11-11T12:16:47;4.40;;;3.00;;
6243;SDS011;3155;49.940;8.450;2022-11-11T12:31:37;3.85;;;2.88;;
6243;SDS011;3155;49.940;8.450;2022-11-11T12:45:18;6.03;;;3.17;;
6243;SDS011;3155;49.940;8.450;2022-11-11T12:47:56;6.57;;;3.43;;
6243;SDS011;3155;49.940;8.450;2022-11-11T12:51:32;7.93;;;4.00;;
6243;SDS011;3155;49.940;8.450;2022-11-11T12:53:46;7.05;;;4.47;;
6243;SDS011;3155;49.940;8.450;2022-11-11T13:07:46;5.13;;;4.20;;
6243;SDS011;3155;49.940;8.450;2022-11-11T13:10:26;6.03;;;3.72;;
6243;SDS011;3155;49.940;8.450;2022-11-11T13:13:08;5.65;;;3.97;;
6243;SDS011;3155;49.940;8.450;2022-11-11T13:15:42;5.28;;;3.42;;
6243;SDS011;3155;49.940;8.450;2022-11-11T13:18:14;8.32;;;3.35;;
6243;SDS011;3155;49.940;8.450;2022-11-11T13:20:48;6.82;;;4.28;;
6243;SDS011;3155;49.940;8.450;2022-11-11T13:23:35;8.40;;;4.67;;
6243;SDS011;3155;49.940;8.450;2022-11-11T13:26:02;9.15;;;4.30;;
6243;SDS011;3155;49.940;8.450;2022-11-11T13:28:37;4.80;;;3.53;;
6243;SDS011;3155;49.940;8.450;2022-11-11T13:31:11;7.80;;;4.13;;
6243;SDS011;3155;49.940;8.450;2022-11-11T13:33:52;7.37;;;4.37;;
6243;SDS011;3155;49.940;8.450;2022-11-11T13:36:23;7.22;;;4.95;;
6243;SDS011;3155;49.940;8.450;2022-11-11T13:38:54;6.97;;;4.85;;
6243;SDS011;3155;49.940;8.450;2022-11-11T13:41:29;5.97;;;4.03;;
6243;SDS011;3155;49.940;8.450;2022-11-11T13:44:00;7.25;;;4.38;;
6243;SDS011;3155;49.940;8.450;2022-11-11T13:46:44;9.00;;;3.90;;
6243;SDS011;3155;49.940;8.450;2022-11-11T13:49:25;12.10;;;5.85;;
6243;SDS011;3155;49.940;8.450;2022-11-11T13:51:57;9.83;;;5.77;;
6243;SDS011;3155;49.940;8.450;2022-11-11T13:54:32;14.93;;;6.38;;
6243;SDS011;3155;49.940;8.450;2022-11-11T13:57:05;12.90;;;4.72;;
6243;SDS011;3155;49.940;8.450;2022-11-11T13:59:40;9.82;;;5.80;;
6243;SDS011;3155;49.940;8.450;2022-11-11T14:12:45;6.88;;;3.50;;
6243;SDS011;3155;49.940;8.450;2022-11-11T14:20:47;7.05;;;3.90;;
6243;SDS011;3155;49.940;8.450;2022-11-11T14:28:33;7.32;;;3.67;;
6243;SDS011;3155;49.940;8.450;2022-11-11T14:31:24;5.05;;;3.42;;
6243;SDS011;3155;49.940;8.450;2022-11-11T14:37:03;6.90;;;4.30;;
6243;SDS011;3155;49.940;8.450;2022-11-11T14:39:51;3.88;;;3.05;;
6243;SDS011;3155;49.940;8.450;2022-11-11T14:47:48;4.47;;;3.40;;
6243;SDS011;3155;49.940;8.450;2022-11-11T14:52:58;2.85;;;2.53;;
6243;SDS011;3155;49.940;8.450;2022-11-11T14:55:27;3.85;;;3.03;;
6243;SDS011;3155;49.940;8.450;2022-11-11T14:58:00;4.75;;;2.65;;
6243;SDS011;3155;49.940;8.450;2022-11-11T15:00:58;6.40;;;3.30;;
6243;SDS011;3155;49.940;8.450;2022-11-11T15:03:35;4.35;;;2.55;;
6243;SDS011;3155;49.940;8.450;2022-11-11T15:06:17;5.40;;;3.50;;
6243;SDS011;3155;49.940;8.450;2022-11-11T15:11:50;5.72;;;3.80;;
6243;SDS011;3155;49.940;8.450;2022-11-11T15:17:27;4.45;;;3.08;;
6243;SDS011;3155;49.940;8.450;2022-11-11T15:23:24;6.75;;;3.55;;
6243;SDS011;3155;49.940;8.450;2022-11-11T15:34:12;4.68;;;2.95;;
6243;SDS011;3155;49.940;8.450;2022-11-11T15:37:09;4.45;;;2.70;;
6243;SDS011;3155;49.940;8.450;2022-11-11T15:39:43;9.13;;;3.42;;
6243;SDS011;3155;49.940;8.450;2022-11-11T15:42:21;4.30;;;3.20;;
6243;SDS011;3155;49.940;8.450;2022-11-11T15:45:04;3.87;;;2.17;;
6243;SDS011;3155;49.940;8.450;2022-11-11T15:47:47;4.75;;;2.42;;
6243;SDS011;3155;49.940;8.450;2022-11-11T15:52:54;2.67;;;2.47;;
6243;SDS011;3155;49.940;8.450;2022-11-11T15:55:35;2.03;;;1.83;;
6243;SDS011;3155;49.940;8.450;2022-11-11T15:58:10;2.40;;;2.20;;
6243;SDS011;3155;49.940;8.450;2022-11-11T16:00:40;2.13;;;1.67;;
6243;SDS011;3155;49.940;8.450;2022-11-11T16:03:15;2.38;;;1.45;;
6243;SDS011;3155;49.940;8.450;2022-11-11T16:05:44;3.72;;;2.53;;
6243;SDS011;3155;49.940;8.450;2022-11-11T16:08:14;2.10;;;2.00;;
6243;SDS011;3155;49.940;8.450;2022-11-11T16:10:45;1.80;;;1.70;;
6243;SDS011;3155;49.940;8.450;2022-11-11T16:13:20;1.92;;;1.83;;
6243;SDS011;3155;49.940;8.450;2022-11-11T16:15:49;3.88;;;1.95;;
6243;SDS011;3155;49.940;8.450;2022-11-11T16:18:28;1.67;;;1.60;;
6243;SDS011;3155;49.940;8.450;2022-11-11T16:21:03;3.30;;;2.35;;
6243;SDS011;3155;49.940;8.450;2022-11-11T16:23:34;1.65;;;1.55;;
6243;SDS011;3155;49.940;8.450;2022-11-11T16:26:03;2.58;;;2.00;;
6243;SDS011;3155;49.940;8.450;2022-11-11T16:28:37;3.00;;;1.92;;
6243;SDS011;3155;49.940;8.450;2022-11-11T16:33:56;4.30;;;1.98;;
6243;SDS011;3155;49.940;8.450;2022-11-11T16:36:23;3.92;;;1.92;;
6243;SDS011;3155;49.940;8.450;2022-11-11T16:38:50;3.00;;;1.65;;
6243;SDS011;3155;49.940;8.450;2022-11-11T16:41:26;2.58;;;1.98;;
6243;SDS011;3155;49.940;8.450;2022-11-11T16:43:54;2.13;;;1.92;;
6243;SDS011;3155;49.940;8.450;2022-11-11T16:46:37;2.20;;;1.98;;
6243;SDS011;3155;49.940;8.450;2022-11-11T16:51:54;3.03;;;1.50;;
6243;SDS011;3155;49.940;8.450;2022-11-11T16:54:21;2.43;;;1.63;;
6243;SDS011;3155;49.940;8.450;2022-11-11T16:56:52;3.00;;;2.25;;
6243;SDS011;3155;49.940;8.450;2022-11-11T17:04:47;2.47;;;1.75;;
6243;SDS011;3155;49.940;8.450;2022-11-11T17:12:36;2.17;;;1.38;;
6243;SDS011;3155;49.940;8.450;2022-11-11T17:15:07;2.15;;;1.67;;
6243;SDS011;3155;49.940;8.450;2022-11-11T17:17:36;2.33;;;1.40;;
6243;SDS011;3155;49.940;8.450;2022-11-11T17:20:09;1.60;;;1.27;;
6243;SDS011;3155;49.940;8.450;2022-11-11T17:22:56;3.90;;;2.17;;
6243;SDS011;3155;49.940;8.450;2022-11-11T17:25:23;2.13;;;2.03;;
6243;SDS011;3155;49.940;8.450;2022-11-11T17:27:49;2.30;;;1.38;;
6243;SDS011;3155;49.940;8.450;2022-11-11T17:30:16;1.38;;;1.27;;
6243;SDS011;3155;49.940;8.450;2022-11-11T17:32:45;1.48;;;1.38;;
6243;SDS011;3155;49.940;8.450;2022-11-11T17:35:13;2.55;;;1.73;;
6243;SDS011;3155;49.940;8.450;2022-11-11T17:37:40;1.40;;;1.30;;
6243;SDS011;3155;49.940;8.450;2022-11-11T17:40:07;2.45;;;1.48;;
6243;SDS011;3155;49.940;8.450;2022-11-11T17:42:35;2.13;;;1.73;;
6243;SDS011;3155;49.940;8.450;2022-11-11T17:45:03;1.65;;;1.35;;
6243;SDS011;3155;49.940;8.450;2022-11-11T17:47:30;2.67;;;1.80;;
6243;SDS011;3155;49.940;8.450;2022-11-11T17:50:07;1.95;;;1.63;;
6243;SDS011;3155;49.940;8.450;2022-11-11T17:52:34;2.65;;;1.88;;
6243;SDS011;3155;49.940;8.450;2022-11-11T17:55:01;2.15;;;1.85;;
6243;SDS011;3155;49.940;8.450;2022-11-11T17:57:27;3.65;;;1.95;;
6243;SDS011;3155;49.940;8.450;2022-11-11T17:59:54;1.70;;;1.10;;
6243;SDS011;3155;49.940;8.450;2022-11-11T18:02:24;1.92;;;1.25;;
6243;SDS011;3155;49.940;8.450;2022-11-11T18:04:50;2.00;;;1.90;;
6243;SDS011;3155;49.940;8.450;2022-11-11T18:07:19;3.05;;;1.48;;
6243;SDS011;3155;49.940;8.450;2022-11-11T18:09:46;2.10;;;1.20;;
6243;SDS011;3155;49.940;8.450;2022-11-11T18:12:13;2.47;;;1.80;;
6243;SDS011;3155;49.940;8.450;2022-11-11T18:14:39;1.27;;;1.17;;